createdAt,value
2018-12-08T00:05:31.686Z,99.49
2018-12-08T00:10:35.049Z,98.81
2018-12-08T00:15:38.422Z,97.47
2018-12-08T00:20:41.746Z,95.83
2018-12-08T00:25:45.136Z,96.81
2018-12-08T00:31:27.223Z,95.78
2018-12-08T00:36:30.680Z,95.24
2018-12-08T00:41:34.184Z,94.46
2018-12-08T00:46:37.562Z,94.75
2018-12-08T00:51:41.016Z,93.69
2018-12-08T00:56:44.412Z,92.80
2018-12-08T01:06:56.919Z,92.45
2018-12-08T01:12:07.465Z,93.72
2018-12-08T01:17:11.162Z,94.96
2018-12-08T01:22:14.524Z,94.12
2018-12-08T01:27:17.878Z,93.75
2018-12-08T01:32:21.508Z,93.21
2018-12-08T01:37:24.879Z,94.70
2018-12-08T01:42:28.439Z,93.61
2018-12-08T01:47:31.913Z,93.91
2018-12-08T01:52:35.293Z,100.00
2018-12-08T01:57:38.728Z,100.00
2018-12-08T02:02:42.110Z,100.00
2018-12-08T02:07:45.513Z,100.00
2018-12-08T02:12:48.937Z,100.00
2018-12-08T02:17:52.329Z,100.00
2018-12-08T02:22:55.665Z,97.16
2018-12-08T02:27:59.205Z,94.04
2018-12-08T02:33:42.056Z,92.53
2018-12-08T02:38:58.046Z,91.92
2018-12-08T02:44:01.397Z,92.91
2018-12-08T02:49:04.850Z,91.95
2018-12-08T02:54:08.195Z,90.28
2018-12-08T02:59:11.719Z,88.80
2018-12-08T03:04:34.512Z,88.21
2018-12-08T03:09:37.988Z,88.21
2018-12-08T03:14:41.413Z,89.40
2018-12-08T03:19:44.803Z,88.58
2018-12-08T03:24:48.189Z,89.16
2018-12-08T03:29:51.547Z,88.16
2018-12-08T03:34:54.937Z,88.20
2018-12-08T03:39:58.329Z,88.71
2018-12-08T03:45:01.680Z,88.36
2018-12-08T03:50:06.123Z,88.62
2018-12-08T03:55:09.457Z,88.09
2018-12-08T04:00:32.748Z,89.53
2018-12-08T04:05:36.124Z,89.01
2018-12-08T04:10:39.504Z,89.84
2018-12-08T04:15:42.890Z,87.66
2018-12-08T04:20:46.270Z,87.54
2018-12-08T04:25:49.608Z,87.67
2018-12-08T04:30:53.093Z,88.98
2018-12-08T04:35:56.499Z,87.99
2018-12-08T04:41:00.223Z,88.11
2018-12-08T04:46:03.604Z,87.32
2018-12-08T04:51:06.898Z,88.13
2018-12-08T04:56:10.322Z,87.94
2018-12-08T05:06:22.730Z,87.78
2018-12-08T05:11:26.107Z,92.95
2018-12-08T05:16:29.488Z,96.36
2018-12-08T05:21:32.859Z,98.70
2018-12-08T05:26:36.301Z,99.65
2018-12-08T05:31:39.630Z,100.00
2018-12-08T05:36:42.995Z,100.00
2018-12-08T05:41:46.391Z,100.00
2018-12-08T05:46:49.859Z,100.00
2018-12-08T05:51:53.216Z,100.00
2018-12-08T05:56:56.657Z,100.00
2018-12-08T06:02:19.477Z,100.00
2018-12-08T06:07:22.872Z,100.00
2018-12-08T06:12:27.562Z,100.00
2018-12-08T06:17:30.895Z,100.00
2018-12-08T06:28:21.884Z,100.00
2018-12-08T06:33:25.323Z,100.00
2018-12-08T06:38:28.781Z,100.00
2018-12-08T06:43:32.178Z,100.00
2018-12-08T06:48:35.551Z,100.00
2018-12-08T06:53:39.046Z,100.00
2018-12-08T06:58:42.368Z,100.00
2018-12-08T07:03:45.723Z,100.00
2018-12-08T07:08:49.048Z,100.00
2018-12-08T07:13:52.442Z,100.00
2018-12-08T07:18:56.105Z,100.00
2018-12-08T07:23:59.495Z,100.00
2018-12-08T07:29:02.877Z,100.00
2018-12-08T07:34:06.233Z,100.00
2018-12-08T07:39:09.654Z,100.00
2018-12-08T07:44:13.016Z,100.00
2018-12-08T07:49:16.421Z,100.00
2018-12-08T07:54:19.880Z,100.00
2018-12-08T08:04:33.036Z,100.00
2018-12-08T08:09:36.414Z,100.00
2018-12-08T08:14:39.779Z,100.00
2018-12-08T08:19:43.171Z,100.00
2018-12-08T08:24:46.550Z,100.00
2018-12-08T08:29:49.924Z,100.00
2018-12-08T08:34:53.266Z,100.00
2018-12-08T08:39:56.646Z,100.00
2018-12-08T08:45:00.059Z,100.00
2018-12-08T08:50:05.101Z,100.00
2018-12-08T08:55:07.327Z,100.00
2018-12-08T09:00:12.102Z,100.00
2018-12-08T09:05:15.683Z,100.00
2018-12-08T09:10:19.081Z,100.00
2018-12-08T09:15:22.435Z,100.00
2018-12-08T09:20:45.199Z,100.00
2018-12-08T09:25:48.618Z,100.00
2018-12-08T09:30:52.096Z,100.00
2018-12-08T09:35:55.483Z,100.00
2018-12-08T09:40:58.835Z,100.00
2018-12-08T09:46:02.248Z,100.00
2018-12-08T09:51:05.708Z,100.00
2018-12-08T09:56:09.060Z,100.00
2018-12-08T10:01:12.430Z,100.00
2018-12-08T10:06:15.816Z,100.00
2018-12-08T10:11:19.318Z,100.00
2018-12-08T10:16:22.656Z,100.00
2018-12-08T10:26:35.560Z,100.00
2018-12-08T10:31:38.924Z,100.00
2018-12-08T10:36:42.339Z,100.00
2018-12-08T10:41:45.707Z,100.00
2018-12-08T10:46:49.067Z,100.00
2018-12-08T10:51:52.419Z,100.00
2018-12-08T10:56:55.801Z,100.00
2018-12-08T11:02:18.240Z,100.00
2018-12-08T11:07:21.686Z,100.00
2018-12-08T11:12:25.079Z,100.00
2018-12-08T11:17:28.471Z,100.00
2018-12-08T11:22:31.889Z,100.00
2018-12-08T11:27:35.196Z,100.00
2018-12-08T11:32:38.578Z,100.00
2018-12-08T11:37:41.982Z,100.00
2018-12-08T11:42:45.495Z,100.00
2018-12-08T11:47:48.914Z,100.00
2018-12-08T11:52:52.305Z,100.00
2018-12-08T11:57:55.750Z,100.00
2018-12-08T12:02:59.221Z,100.00
2018-12-08T12:08:02.564Z,100.00
2018-12-08T12:13:06.019Z,100.00
2018-12-08T12:18:09.421Z,100.00
2018-12-08T12:23:12.814Z,100.00
2018-12-08T12:28:42.041Z,100.00
2018-12-08T12:33:45.476Z,100.00
2018-12-08T12:38:48.850Z,100.00
2018-12-08T12:43:52.189Z,100.00
2018-12-08T12:54:05.025Z,100.00
2018-12-08T12:59:08.396Z,100.00
2018-12-08T13:04:11.790Z,100.00
2018-12-08T13:09:15.221Z,100.00
2018-12-08T13:14:18.743Z,99.88
2018-12-08T13:19:22.451Z,98.58
2018-12-08T13:24:49.985Z,95.29
2018-12-08T13:29:53.607Z,93.12
2018-12-08T13:34:56.968Z,92.19
2018-12-08T13:40:00.585Z,92.18
2018-12-08T13:45:23.367Z,92.37
2018-12-08T13:50:26.786Z,92.65
2018-12-08T13:55:30.843Z,92.53
2018-12-08T14:00:34.358Z,92.65
2018-12-08T14:05:37.716Z,95.13
2018-12-08T14:10:41.115Z,96.85
2018-12-08T14:15:44.994Z,95.41
2018-12-08T14:20:48.415Z,97.01
2018-12-08T14:26:11.588Z,97.16
2018-12-08T14:31:15.064Z,97.80
2018-12-08T14:36:18.442Z,100.00
2018-12-08T14:41:22.221Z,100.00
2018-12-08T14:46:45.620Z,100.00
2018-12-08T14:51:49.097Z,100.00
2018-12-08T14:57:12.065Z,100.00
2018-12-08T15:02:15.746Z,100.00
2018-12-08T15:07:19.239Z,99.39
2018-12-08T15:12:22.768Z,98.13
2018-12-08T15:17:26.217Z,98.11
2018-12-08T15:22:29.572Z,97.60
2018-12-08T15:38:05.275Z,97.87
2018-12-08T15:43:09.108Z,97.87
2018-12-08T15:48:13.144Z,97.72
2018-12-08T15:53:17.215Z,96.63
2018-12-08T15:58:20.583Z,95.71
2018-12-08T16:03:24.221Z,95.24
2018-12-08T16:13:36.764Z,96.19
2018-12-08T16:18:40.192Z,95.48
2018-12-08T16:23:43.559Z,97.32
2018-12-08T16:28:47.022Z,97.66
2018-12-08T16:34:10.187Z,98.47
2018-12-08T16:44:42.547Z,99.14
2018-12-08T16:49:46.035Z,97.23
2018-12-08T16:54:49.527Z,97.46
2018-12-08T16:59:52.983Z,97.67
2018-12-08T17:04:56.464Z,96.50
2018-12-08T17:10:00.082Z,93.67
2018-12-08T17:15:03.637Z,93.78
2018-12-08T17:20:26.514Z,91.04
2018-12-08T17:25:29.979Z,90.63
2018-12-08T17:30:33.385Z,87.44
2018-12-08T17:35:37.063Z,87.53
2018-12-08T17:40:40.491Z,88.76
2018-12-08T17:45:43.899Z,89.66
2018-12-08T17:50:47.452Z,88.82
2018-12-08T17:55:51.245Z,89.81
2018-12-08T18:01:14.557Z,89.51
2018-12-08T18:06:30.350Z,90.49
2018-12-08T18:11:35.158Z,91.82
2018-12-08T18:16:38.532Z,92.52
2018-12-08T18:26:50.478Z,93.25
2018-12-08T18:31:54.446Z,91.41
2018-12-08T18:36:57.846Z,92.45
2018-12-08T18:42:01.244Z,93.29
2018-12-08T18:47:04.644Z,89.67
2018-12-08T18:52:08.090Z,89.99
2018-12-08T18:57:12.324Z,94.89
2018-12-08T19:02:15.713Z,96.46
2018-12-08T19:07:19.060Z,98.74
2018-12-08T19:12:22.466Z,100.00
2018-12-08T19:17:25.868Z,100.00
2018-12-08T19:27:58.545Z,100.00
2018-12-08T19:33:01.940Z,100.00
2018-12-08T19:38:05.317Z,100.00
2018-12-08T19:43:08.822Z,100.00
2018-12-08T19:48:12.434Z,100.00
2018-12-08T19:53:15.772Z,100.00
2018-12-08T19:58:19.231Z,100.00
2018-12-08T20:03:22.543Z,100.00
2018-12-08T20:08:25.924Z,100.00
2018-12-08T20:13:29.330Z,100.00
2018-12-08T20:18:32.757Z,100.00
2018-12-08T20:23:36.157Z,100.00
2018-12-08T20:28:39.640Z,100.00
2018-12-08T20:33:43.053Z,100.00
2018-12-08T20:38:46.454Z,100.00
2018-12-08T20:43:49.769Z,100.00
2018-12-08T20:48:53.178Z,100.00
2018-12-08T20:53:56.597Z,100.00
2018-12-08T20:59:00.005Z,100.00
2018-12-08T21:04:03.366Z,100.00
2018-12-08T21:09:06.740Z,100.00
2018-12-08T21:14:10.157Z,100.00
2018-12-08T21:19:13.604Z,100.00
2018-12-08T21:24:17.075Z,100.00
2018-12-08T21:29:20.612Z,100.00
2018-12-08T21:34:43.402Z,100.00
2018-12-08T21:39:46.822Z,100.00
2018-12-08T21:44:50.240Z,100.00
2018-12-08T21:50:13.246Z,100.00
2018-12-08T21:55:16.955Z,100.00
2018-12-08T22:00:30.839Z,100.00
2018-12-08T22:05:35.919Z,100.00
2018-12-08T22:10:39.438Z,100.00
2018-12-08T22:15:43.144Z,100.00
2018-12-08T22:20:46.790Z,100.00
2018-12-08T22:25:50.197Z,100.00
2018-12-08T22:30:53.609Z,100.00
2018-12-08T22:35:57.203Z,100.00
2018-12-08T22:41:00.598Z,100.00
2018-12-08T22:46:04.100Z,100.00
2018-12-08T22:51:07.432Z,100.00
2018-12-08T22:56:10.825Z,100.00
2018-12-08T23:01:14.240Z,100.00
2018-12-08T23:06:17.675Z,100.00
2018-12-08T23:11:21.397Z,100.00
2018-12-08T23:16:24.793Z,100.00
2018-12-08T23:21:28.171Z,100.00
2018-12-08T23:26:31.582Z,100.00
2018-12-08T23:31:34.940Z,100.00
2018-12-08T23:36:38.361Z,100.00
2018-12-08T23:41:41.718Z,100.00
2018-12-08T23:46:45.079Z,100.00
2018-12-08T23:51:48.469Z,100.00
2018-12-08T23:56:54.958Z,100.00
